sensor_id;sensor_type;location;lat;lon;timestamp;pressure;altitude;pressure_sealevel;temperature;humidity
81274;BME280;70753;47.908;11.274;2023-07-31T00:01:46;94964.16;;;19.96;55.08
81274;BME280;70753;47.908;11.274;2023-07-31T00:04:14;94965.75;;;19.97;55.41
81274;BME280;70753;47.908;11.274;2023-07-31T00:06:39;94967.22;;;19.95;55.72
81274;BME280;70753;47.908;11.274;2023-07-31T00:09:04;94969.78;;;19.79;55.96
81274;BME280;70753;47.908;11.274;2023-07-31T00:11:31;94957.63;;;19.85;55.54
81274;BME280;70753;47.908;11.274;2023-07-31T00:13:58;94953.09;;;19.89;55.48
81274;BME280;70753;47.908;11.274;2023-07-31T00:16:24;94950.63;;;19.84;56.36
81274;BME280;70753;47.908;11.274;2023-07-31T00:18:49;94949.34;;;19.69;56.39
81274;BME280;70753;47.908;11.274;2023-07-31T00:21:14;94952.53;;;19.83;56.34
81274;BME280;70753;47.908;11.274;2023-07-31T00:23:40;94952.91;;;19.82;55.92
81274;BME280;70753;47.908;11.274;2023-07-31T00:26:05;94941.13;;;19.78;56.14
81274;BME280;70753;47.908;11.274;2023-07-31T00:28:32;94946.00;;;19.84;56.09
81274;BME280;70753;47.908;11.274;2023-07-31T00:30:57;94943.75;;;19.86;55.90
81274;BME280;70753;47.908;11.274;2023-07-31T00:33:23;94942.97;;;19.86;56.23
81274;BME280;70753;47.908;11.274;2023-07-31T00:35:48;94939.13;;;19.87;55.88
81274;BME280;70753;47.908;11.274;2023-07-31T00:38:14;94933.38;;;19.88;55.41
81274;BME280;70753;47.908;11.274;2023-07-31T00:40:39;94936.22;;;19.92;55.09
81274;BME280;70753;47.908;11.274;2023-07-31T00:43:05;94932.50;;;19.97;55.15
81274;BME280;70753;47.908;11.274;2023-07-31T00:45:32;94931.03;;;19.99;55.50
81274;BME280;70753;47.908;11.274;2023-07-31T00:47:58;94929.44;;;19.98;54.60
81274;BME280;70753;47.908;11.274;2023-07-31T00:50:25;94934.41;;;19.96;54.10
81274;BME280;70753;47.908;11.274;2023-07-31T00:52:51;94927.63;;;19.90;54.04
81274;BME280;70753;47.908;11.274;2023-07-31T00:55:17;94918.63;;;19.86;54.25
81274;BME280;70753;47.908;11.274;2023-07-31T00:57:45;94920.63;;;19.89;54.79
81274;BME280;70753;47.908;11.274;2023-07-31T01:00:11;94922.69;;;19.92;53.54
81274;BME280;70753;47.908;11.274;2023-07-31T01:02:39;94916.81;;;19.90;53.88
81274;BME280;70753;47.908;11.274;2023-07-31T01:05:05;94916.03;;;19.89;54.39
81274;BME280;70753;47.908;11.274;2023-07-31T01:07:36;94917.72;;;19.94;53.94
81274;BME280;70753;47.908;11.274;2023-07-31T01:10:08;94920.63;;;19.89;54.28
81274;BME280;70753;47.908;11.274;2023-07-31T01:12:37;94926.75;;;19.86;55.40
81274;BME280;70753;47.908;11.274;2023-07-31T01:15:04;94913.97;;;19.74;55.38
81274;BME280;70753;47.908;11.274;2023-07-31T01:17:30;94913.53;;;19.84;54.79
81274;BME280;70753;47.908;11.274;2023-07-31T01:20:01;94913.56;;;19.97;54.51
81274;BME280;70753;47.908;11.274;2023-07-31T01:22:37;94909.38;;;19.99;54.44
81274;BME280;70753;47.908;11.274;2023-07-31T01:25:15;94906.22;;;19.97;54.77
81274;BME280;70753;47.908;11.274;2023-07-31T01:27:53;94906.69;;;19.99;53.68
81274;BME280;70753;47.908;11.274;2023-07-31T01:30:24;94907.75;;;19.62;54.27
81274;BME280;70753;47.908;11.274;2023-07-31T01:32:51;94902.16;;;19.79;54.78
81274;BME280;70753;47.908;11.274;2023-07-31T01:35:18;94900.34;;;19.83;54.56
81274;BME280;70753;47.908;11.274;2023-07-31T01:37:43;94891.78;;;19.81;55.16
81274;BME280;70753;47.908;11.274;2023-07-31T01:40:10;94898.19;;;19.88;54.82
81274;BME280;70753;47.908;11.274;2023-07-31T01:42:36;94898.09;;;19.85;54.13
81274;BME280;70753;47.908;11.274;2023-07-31T01:45:03;94895.84;;;19.87;54.73
81274;BME280;70753;47.908;11.274;2023-07-31T01:47:28;94894.81;;;19.79;54.07
81274;BME280;70753;47.908;11.274;2023-07-31T01:49:54;94895.16;;;19.78;54.09
81274;BME280;70753;47.908;11.274;2023-07-31T01:52:19;94894.47;;;19.81;53.29
81274;BME280;70753;47.908;11.274;2023-07-31T01:54:45;94896.84;;;19.82;53.43
81274;BME280;70753;47.908;11.274;2023-07-31T01:57:10;94898.78;;;19.82;54.33
81274;BME280;70753;47.908;11.274;2023-07-31T01:59:35;94891.53;;;19.74;54.24
81274;BME280;70753;47.908;11.274;2023-07-31T02:02:02;94888.06;;;19.85;53.67
81274;BME280;70753;47.908;11.274;2023-07-31T02:04:28;94887.72;;;19.87;53.31
81274;BME280;70753;47.908;11.274;2023-07-31T02:06:53;94884.31;;;19.66;54.44
81274;BME280;70753;47.908;11.274;2023-07-31T02:09:19;94886.81;;;19.71;54.26
81274;BME280;70753;47.908;11.274;2023-07-31T02:11:44;94882.06;;;19.68;54.25
81274;BME280;70753;47.908;11.274;2023-07-31T02:14:11;94876.13;;;19.30;55.51
81274;BME280;70753;47.908;11.274;2023-07-31T02:16:36;94885.91;;;19.67;54.24
81274;BME280;70753;47.908;11.274;2023-07-31T02:19:03;94881.41;;;19.71;54.42
81274;BME280;70753;47.908;11.274;2023-07-31T02:21:28;94877.69;;;19.75;54.37
81274;BME280;70753;47.908;11.274;2023-07-31T02:23:54;94879.03;;;19.81;53.80
81274;BME280;70753;47.908;11.274;2023-07-31T02:26:19;94867.66;;;19.76;53.74
81274;BME280;70753;47.908;11.274;2023-07-31T02:28:45;94872.16;;;19.72;54.05
81274;BME280;70753;47.908;11.274;2023-07-31T02:31:10;94866.97;;;19.67;54.64
81274;BME280;70753;47.908;11.274;2023-07-31T02:33:35;94870.13;;;19.69;54.72
81274;BME280;70753;47.908;11.274;2023-07-31T02:36:03;94863.81;;;19.53;55.59
81274;BME280;70753;47.908;11.274;2023-07-31T02:38:29;94856.78;;;19.40;56.19
81274;BME280;70753;47.908;11.274;2023-07-31T02:40:54;94862.25;;;19.52;56.13
81274;BME280;70753;47.908;11.274;2023-07-31T02:43:19;94857.50;;;19.49;56.33
81274;BME280;70753;47.908;11.274;2023-07-31T02:45:45;94862.09;;;19.48;56.61
81274;BME280;70753;47.908;11.274;2023-07-31T02:48:10;94853.78;;;19.41;56.92
81274;BME280;70753;47.908;11.274;2023-07-31T02:50:36;94858.38;;;18.75;58.32
81274;BME280;70753;47.908;11.274;2023-07-31T02:53:03;94840.28;;;18.14;61.62
81274;BME280;70753;47.908;11.274;2023-07-31T02:55:29;94842.53;;;18.74;59.85
81274;BME280;70753;47.908;11.274;2023-07-31T02:57:54;94851.72;;;18.93;59.14
81274;BME280;70753;47.908;11.274;2023-07-31T03:00:19;94847.47;;;19.04;57.83
81274;BME280;70753;47.908;11.274;2023-07-31T03:02:45;94844.53;;;19.09;57.89
81274;BME280;70753;47.908;11.274;2023-07-31T03:05:10;94836.97;;;19.03;57.82
81274;BME280;70753;47.908;11.274;2023-07-31T03:07:36;94839.09;;;18.97;57.91
81274;BME280;70753;47.908;11.274;2023-07-31T03:10:03;94841.56;;;18.90;58.60
81274;BME280;70753;47.908;11.274;2023-07-31T03:12:29;94836.97;;;18.08;61.69
81274;BME280;70753;47.908;11.274;2023-07-31T03:14:54;94839.75;;;17.71;62.67
81274;BME280;70753;47.908;11.274;2023-07-31T03:17:19;94838.81;;;18.37;60.91
81274;BME280;70753;47.908;11.274;2023-07-31T03:19:45;94846.47;;;18.56;60.11
81274;BME280;70753;47.908;11.274;2023-07-31T03:22:10;94845.09;;;18.70;59.23
81274;BME280;70753;47.908;11.274;2023-07-31T03:24:36;94849.38;;;18.71;59.42
81274;BME280;70753;47.908;11.274;2023-07-31T03:27:03;94853.59;;;18.81;58.54
81274;BME280;70753;47.908;11.274;2023-07-31T03:29:29;94859.72;;;18.69;58.71
81274;BME280;70753;47.908;11.274;2023-07-31T03:31:54;94856.75;;;18.62;58.98
81274;BME280;70753;47.908;11.274;2023-07-31T03:34:20;94852.03;;;18.59;59.36
81274;BME280;70753;47.908;11.274;2023-07-31T03:36:45;94862.03;;;18.59;59.16
81274;BME280;70753;47.908;11.274;2023-07-31T03:39:11;94858.31;;;18.22;60.29
81274;BME280;70753;47.908;11.274;2023-07-31T03:41:36;94855.03;;;18.16;60.91
81274;BME280;70753;47.908;11.274;2023-07-31T03:44:03;94856.47;;;18.14;60.80
81274;BME280;70753;47.908;11.274;2023-07-31T03:46:29;94864.34;;;17.98;61.83
81274;BME280;70753;47.908;11.274;2023-07-31T03:48:54;94862.78;;;18.38;60.12
81274;BME280;70753;47.908;11.274;2023-07-31T03:51:19;94862.97;;;18.13;60.94
81274;BME280;70753;47.908;11.274;2023-07-31T03:53:46;94857.72;;;18.37;60.26
81274;BME280;70753;47.908;11.274;2023-07-31T03:56:11;94862.31;;;18.16;60.93
81274;BME280;70753;47.908;11.274;2023-07-31T03:58:37;94854.28;;;18.28;60.56
81274;BME280;70753;47.908;11.274;2023-07-31T04:01:03;94861.75;;;18.02;61.54
81274;BME280;70753;47.908;11.274;2023-07-31T04:03:29;94853.47;;;18.36;60.83
81274;BME280;70753;47.908;11.274;2023-07-31T04:05:55;94850.94;;;18.31;60.97
81274;BME280;70753;47.908;11.274;2023-07-31T04:08:20;94853.84;;;18.26;61.23
81274;BME280;70753;47.908;11.274;2023-07-31T04:10:46;94851.06;;;17.85;62.54
81274;BME280;70753;47.908;11.274;2023-07-31T04:13:11;94848.47;;;17.30;64.94
81274;BME280;70753;47.908;11.274;2023-07-31T04:15:37;94859.97;;;17.56;63.90
81274;BME280;70753;47.908;11.274;2023-07-31T04:18:04;94864.09;;;17.53;64.31
81274;BME280;70753;47.908;11.274;2023-07-31T04:20:30;94863.06;;;17.96;63.04
81274;BME280;70753;47.908;11.274;2023-07-31T04:22:55;94857.38;;;18.18;62.13
81274;BME280;70753;47.908;11.274;2023-07-31T04:25:21;94858.91;;;18.27;61.52
81274;BME280;70753;47.908;11.274;2023-07-31T04:27:46;94851.13;;;18.26;61.11
81274;BME280;70753;47.908;11.274;2023-07-31T04:30:12;94850.53;;;18.41;60.83
81274;BME280;70753;47.908;11.274;2023-07-31T04:32:37;94845.28;;;18.24;61.14
81274;BME280;70753;47.908;11.274;2023-07-31T04:35:05;94852.16;;;17.92;62.35
81274;BME280;70753;47.908;11.274;2023-07-31T04:37:31;94847.25;;;18.15;61.80
81274;BME280;70753;47.908;11.274;2023-07-31T04:39:56;94843.44;;;18.16;61.89
81274;BME280;70753;47.908;11.274;2023-07-31T04:42:22;94831.94;;;17.40;64.00
81274;BME280;70753;47.908;11.274;2023-07-31T04:44:47;94844.19;;;17.96;62.52
81274;BME280;70753;47.908;11.274;2023-07-31T04:47:12;94839.59;;;17.96;62.33
81274;BME280;70753;47.908;11.274;2023-07-31T04:49:38;94834.88;;;18.14;61.62
81274;BME280;70753;47.908;11.274;2023-07-31T04:52:05;94834.47;;;18.24;61.66
81274;BME280;70753;47.908;11.274;2023-07-31T04:54:31;94834.75;;;18.31;61.10
81274;BME280;70753;47.908;11.274;2023-07-31T04:56:56;94844.31;;;18.49;60.16
81274;BME280;70753;47.908;11.274;2023-07-31T04:59:22;94839.19;;;18.06;61.94
81274;BME280;70753;47.908;11.274;2023-07-31T05:01:47;94845.69;;;18.14;61.35
81274;BME280;70753;47.908;11.274;2023-07-31T05:04:13;94850.28;;;18.13;61.13
81274;BME280;70753;47.908;11.274;2023-07-31T05:06:39;94845.66;;;18.34;60.73
81274;BME280;70753;47.908;11.274;2023-07-31T05:09:06;94842.97;;;18.34;60.33
81274;BME280;70753;47.908;11.274;2023-07-31T05:11:31;94853.22;;;18.00;61.92
81274;BME280;70753;47.908;11.274;2023-07-31T05:13:57;94855.84;;;17.58;63.70
81274;BME280;70753;47.908;11.274;2023-07-31T05:16:22;94857.41;;;17.59;63.53
81274;BME280;70753;47.908;11.274;2023-07-31T05:18:48;94857.53;;;17.63;63.42
81274;BME280;70753;47.908;11.274;2023-07-31T05:21:13;94859.66;;;17.40;64.17
81274;BME280;70753;47.908;11.274;2023-07-31T05:23:39;94858.13;;;17.22;64.63
81274;BME280;70753;47.908;11.274;2023-07-31T05:26:06;94855.66;;;17.93;63.05
81274;BME280;70753;47.908;11.274;2023-07-31T05:28:33;94849.47;;;18.13;61.99
81274;BME280;70753;47.908;11.274;2023-07-31T05:30:59;94848.44;;;18.26;61.04
81274;BME280;70753;47.908;11.274;2023-07-31T05:33:25;94838.31;;;18.23;60.26
81274;BME280;70753;47.908;11.274;2023-07-31T05:35:51;94855.03;;;18.16;61.17
81274;BME280;70753;47.908;11.274;2023-07-31T05:38:16;94857.84;;;18.40;60.44
81274;BME280;70753;47.908;11.274;2023-07-31T05:40:42;94851.50;;;18.45;60.19
81274;BME280;70753;47.908;11.274;2023-07-31T05:43:10;94849.25;;;18.47;60.36
81274;BME280;70753;47.908;11.274;2023-07-31T05:45:35;94854.06;;;17.92;62.52
81274;BME280;70753;47.908;11.274;2023-07-31T05:48:01;94858.38;;;17.46;64.02
81274;BME280;70753;47.908;11.274;2023-07-31T05:50:27;94851.41;;;17.45;64.09
81274;BME280;70753;47.908;11.274;2023-07-31T05:52:52;94844.59;;;17.56;63.96
81274;BME280;70753;47.908;11.274;2023-07-31T05:55:18;94837.16;;;17.45;64.28
81274;BME280;70753;47.908;11.274;2023-07-31T05:57:44;94832.28;;;17.68;63.67
81274;BME280;70753;47.908;11.274;2023-07-31T06:00:12;94834.38;;;18.20;61.25
81274;BME280;70753;47.908;11.274;2023-07-31T06:02:38;94836.66;;;18.10;62.50
81274;BME280;70753;47.908;11.274;2023-07-31T06:05:04;94839.47;;;18.34;61.95
81274;BME280;70753;47.908;11.274;2023-07-31T06:07:30;94837.13;;;18.12;62.82
81274;BME280;70753;47.908;11.274;2023-07-31T06:09:55;94841.28;;;17.80;62.71
81274;BME280;70753;47.908;11.274;2023-07-31T06:12:21;94836.25;;;17.70;63.35
81274;BME280;70753;47.908;11.274;2023-07-31T06:14:46;94838.72;;;17.84;62.42
81274;BME280;70753;47.908;11.274;2023-07-31T06:17:13;94842.16;;;17.93;62.88
81274;BME280;70753;47.908;11.274;2023-07-31T06:19:38;94839.47;;;18.34;61.52
81274;BME280;70753;47.908;11.274;2023-07-31T06:22:05;94840.53;;;18.42;61.51
81274;BME280;70753;47.908;11.274;2023-07-31T06:24:31;94845.88;;;19.03;59.11
81274;BME280;70753;47.908;11.274;2023-07-31T06:26:56;94848.16;;;18.48;61.17
81274;BME280;70753;47.908;11.274;2023-07-31T06:29:22;94850.28;;;18.34;60.93
81274;BME280;70753;47.908;11.274;2023-07-31T06:31:47;94853.59;;;18.60;61.86
81274;BME280;70753;47.908;11.274;2023-07-31T06:34:14;94851.75;;;18.52;60.83
81274;BME280;70753;47.908;11.274;2023-07-31T06:36:39;94847.59;;;19.20;58.85
81274;BME280;70753;47.908;11.274;2023-07-31T06:39:05;94841.63;;;19.14;58.84
81274;BME280;70753;47.908;11.274;2023-07-31T06:41:30;94850.94;;;19.38;57.32
81274;BME280;70753;47.908;11.274;2023-07-31T06:43:56;94842.97;;;19.53;56.93
81274;BME280;70753;47.908;11.274;2023-07-31T06:46:21;94836.75;;;19.53;55.92
81274;BME280;70753;47.908;11.274;2023-07-31T06:48:47;94838.03;;;19.10;58.10
81274;BME280;70753;47.908;11.274;2023-07-31T06:51:13;94834.06;;;19.41;56.75
81274;BME280;70753;47.908;11.274;2023-07-31T06:53:39;94833.16;;;19.61;56.31
81274;BME280;70753;47.908;11.274;2023-07-31T06:56:04;94837.88;;;19.40;56.94
81274;BME280;70753;47.908;11.274;2023-07-31T06:58:30;94836.41;;;19.54;56.75
81274;BME280;70753;47.908;11.274;2023-07-31T07:00:55;94829.66;;;19.97;54.97
81274;BME280;70753;47.908;11.274;2023-07-31T07:03:21;94820.31;;;19.94;55.09
81274;BME280;70753;47.908;11.274;2023-07-31T07:05:46;94831.91;;;19.95;56.16
81274;BME280;70753;47.908;11.274;2023-07-31T07:08:13;94824.34;;;20.24;54.28
81274;BME280;70753;47.908;11.274;2023-07-31T07:10:38;94826.69;;;20.02;55.45
81274;BME280;70753;47.908;11.274;2023-07-31T07:13:04;94828.84;;;20.08;55.98
81274;BME280;70753;47.908;11.274;2023-07-31T07:15:29;94814.72;;;20.39;54.41
81274;BME280;70753;47.908;11.274;2023-07-31T07:17:54;94823.69;;;20.03;54.90
81274;BME280;70753;47.908;11.274;2023-07-31T07:20:21;94815.22;;;20.56;55.24
81274;BME280;70753;47.908;11.274;2023-07-31T07:22:47;94816.59;;;21.06;52.53
81274;BME280;70753;47.908;11.274;2023-07-31T07:25:14;94814.09;;;21.28;52.26
81274;BME280;70753;47.908;11.274;2023-07-31T07:27:39;94825.13;;;21.35;49.97
81274;BME280;70753;47.908;11.274;2023-07-31T07:30:05;94812.50;;;21.12;51.77
81274;BME280;70753;47.908;11.274;2023-07-31T07:32:31;94806.13;;;21.20;51.84
81274;BME280;70753;47.908;11.274;2023-07-31T07:34:57;94808.31;;;21.46;51.40
81274;BME280;70753;47.908;11.274;2023-07-31T07:37:22;94816.28;;;21.54;50.12
81274;BME280;70753;47.908;11.274;2023-07-31T07:39:48;94808.69;;;21.75;49.88
81274;BME280;70753;47.908;11.274;2023-07-31T07:42:15;94812.06;;;21.41;48.36
81274;BME280;70753;47.908;11.274;2023-07-31T07:44:40;94807.56;;;21.45;48.99
81274;BME280;70753;47.908;11.274;2023-07-31T07:47:05;94793.63;;;21.62;49.32
81274;BME280;70753;47.908;11.274;2023-07-31T07:49:32;94790.38;;;21.88;49.10
81274;BME280;70753;47.908;11.274;2023-07-31T07:51:58;94786.97;;;21.75;49.51
81274;BME280;70753;47.908;11.274;2023-07-31T07:54:23;94780.75;;;21.59;49.79
81274;BME280;70753;47.908;11.274;2023-07-31T07:56:49;94773.13;;;21.65;47.21
81274;BME280;70753;47.908;11.274;2023-07-31T07:59:16;94787.78;;;21.45;47.35
81274;BME280;70753;47.908;11.274;2023-07-31T08:01:41;94768.41;;;21.62;47.04
81274;BME280;70753;47.908;11.274;2023-07-31T08:04:06;94775.16;;;21.52;46.09
81274;BME280;70753;47.908;11.274;2023-07-31T08:06:32;94766.44;;;21.43;47.04
81274;BME280;70753;47.908;11.274;2023-07-31T08:08:59;94772.06;;;21.69;46.29
81274;BME280;70753;47.908;11.274;2023-07-31T08:11:24;94772.44;;;21.68;47.04
81274;BME280;70753;47.908;11.274;2023-07-31T08:13:50;94773.81;;;21.77;47.93
81274;BME280;70753;47.908;11.274;2023-07-31T08:16:16;94788.03;;;22.05;47.28
81274;BME280;70753;47.908;11.274;2023-07-31T08:18:42;94780.69;;;22.06;46.43
81274;BME280;70753;47.908;11.274;2023-07-31T08:21:07;94779.78;;;21.83;46.80
81274;BME280;70753;47.908;11.274;2023-07-31T08:23:33;94784.25;;;21.75;45.41
81274;BME280;70753;47.908;11.274;2023-07-31T08:25:58;94791.00;;;21.34;46.88
81274;BME280;70753;47.908;11.274;2023-07-31T08:28:24;94781.28;;;21.49;47.53
81274;BME280;70753;47.908;11.274;2023-07-31T08:30:49;94783.22;;;21.64;46.81
81274;BME280;70753;47.908;11.274;2023-07-31T08:33:16;94791.59;;;21.59;47.10
81274;BME280;70753;47.908;11.274;2023-07-31T08:35:41;94788.03;;;21.39;47.72
81274;BME280;70753;47.908;11.274;2023-07-31T08:38:07;94791.53;;;21.40;47.98
81274;BME280;70753;47.908;11.274;2023-07-31T08:40:36;94781.66;;;21.32;48.50
81274;BME280;70753;47.908;11.274;2023-07-31T08:43:01;94771.63;;;21.67;47.26
81274;BME280;70753;47.908;11.274;2023-07-31T08:45:27;94760.97;;;21.90;48.26
81274;BME280;70753;47.908;11.274;2023-07-31T08:47:53;94751.34;;;22.11;47.15
81274;BME280;70753;47.908;11.274;2023-07-31T08:50:21;94760.56;;;22.26;46.63
81274;BME280;70753;47.908;11.274;2023-07-31T08:52:47;94760.56;;;22.26;45.95
81274;BME280;70753;47.908;11.274;2023-07-31T08:55:13;94763.66;;;22.25;46.63
81274;BME280;70753;47.908;11.274;2023-07-31T08:57:39;94757.34;;;22.21;46.92
81274;BME280;70753;47.908;11.274;2023-07-31T09:00:07;94765.34;;;22.13;46.87
81274;BME280;70753;47.908;11.274;2023-07-31T09:02:37;94758.88;;;21.52;48.05
81274;BME280;70753;47.908;11.274;2023-07-31T09:05:03;94752.63;;;21.67;48.14
81274;BME280;70753;47.908;11.274;2023-07-31T09:07:34;94757.22;;;22.13;47.34
81274;BME280;70753;47.908;11.274;2023-07-31T09:09:59;94763.13;;;22.19;46.26
81274;BME280;70753;47.908;11.274;2023-07-31T09:12:25;94760.16;;;21.89;48.08
81274;BME280;70753;47.908;11.274;2023-07-31T09:14:51;94755.94;;;22.27;47.88
81274;BME280;70753;47.908;11.274;2023-07-31T09:17:28;94759.81;;;22.64;46.26
81274;BME280;70753;47.908;11.274;2023-07-31T09:19:54;94754.19;;;22.19;47.57
81274;BME280;70753;47.908;11.274;2023-07-31T09:22:32;94755.16;;;22.64;48.03
81274;BME280;70753;47.908;11.274;2023-07-31T09:25:08;94763.25;;;22.80;45.04
81274;BME280;70753;47.908;11.274;2023-07-31T09:27:46;94750.56;;;22.87;45.57
81274;BME280;70753;47.908;11.274;2023-07-31T09:30:12;94750.63;;;22.53;46.06
81274;BME280;70753;47.908;11.274;2023-07-31T09:32:37;94748.19;;;22.86;46.04
81274;BME280;70753;47.908;11.274;2023-07-31T09:35:13;94750.81;;;23.24;44.60
81274;BME280;70753;47.908;11.274;2023-07-31T09:37:40;94744.25;;;23.48;44.77
81274;BME280;70753;47.908;11.274;2023-07-31T09:40:07;94738.03;;;23.74;43.98
81274;BME280;70753;47.908;11.274;2023-07-31T09:42:34;94734.50;;;23.24;44.29
81274;BME280;70753;47.908;11.274;2023-07-31T09:45:07;94737.41;;;23.12;43.97
81274;BME280;70753;47.908;11.274;2023-07-31T09:47:33;94734.88;;;23.45;44.18
81274;BME280;70753;47.908;11.274;2023-07-31T09:49:58;94733.31;;;23.44;44.84
81274;BME280;70753;47.908;11.274;2023-07-31T09:52:26;94718.34;;;23.57;44.66
81274;BME280;70753;47.908;11.274;2023-07-31T09:54:53;94715.72;;;23.38;45.37
81274;BME280;70753;47.908;11.274;2023-07-31T09:57:21;94723.25;;;23.48;43.66
81274;BME280;70753;47.908;11.274;2023-07-31T09:59:47;94720.97;;;23.50;43.16
81274;BME280;70753;47.908;11.274;2023-07-31T10:02:15;94711.66;;;23.51;44.54
81274;BME280;70753;47.908;11.274;2023-07-31T10:04:43;94715.72;;;23.91;43.69
81274;BME280;70753;47.908;11.274;2023-07-31T10:07:09;94700.84;;;24.44;42.36
81274;BME280;70753;47.908;11.274;2023-07-31T10:09:34;94694.66;;;25.21;40.35
81274;BME280;70753;47.908;11.274;2023-07-31T10:12:04;94679.47;;;24.79;40.77
81274;BME280;70753;47.908;11.274;2023-07-31T10:14:32;94683.75;;;25.68;39.80
81274;BME280;70753;47.908;11.274;2023-07-31T10:16:58;94679.34;;;26.14;38.32
81274;BME280;70753;47.908;11.274;2023-07-31T10:19:25;94676.50;;;27.04;37.66
81274;BME280;70753;47.908;11.274;2023-07-31T10:21:52;94669.88;;;27.58;34.67
81274;BME280;70753;47.908;11.274;2023-07-31T10:24:17;94676.88;;;26.92;37.26
81274;BME280;70753;47.908;11.274;2023-07-31T10:26:45;94669.47;;;27.24;37.05
81274;BME280;70753;47.908;11.274;2023-07-31T10:29:12;94669.47;;;27.98;36.03
81274;BME280;70753;47.908;11.274;2023-07-31T10:31:38;94662.25;;;28.43;34.06
81274;BME280;70753;47.908;11.274;2023-07-31T10:34:04;94649.28;;;29.19;32.59
81274;BME280;70753;47.908;11.274;2023-07-31T10:36:30;94653.59;;;28.48;32.80
81274;BME280;70753;47.908;11.274;2023-07-31T10:38:56;94651.44;;;27.93;32.68
81274;BME280;70753;47.908;11.274;2023-07-31T10:41:28;94662.03;;;26.96;33.97
81274;BME280;70753;47.908;11.274;2023-07-31T10:43:54;94681.19;;;26.03;35.89
81274;BME280;70753;47.908;11.274;2023-07-31T10:46:23;94668.44;;;25.56;36.71
81274;BME280;70753;47.908;11.274;2023-07-31T10:48:57;94658.19;;;24.95;38.61
81274;BME280;70753;47.908;11.274;2023-07-31T10:51:23;94663.63;;;24.95;38.93
81274;BME280;70753;47.908;11.274;2023-07-31T10:53:48;94662.97;;;25.09;37.72
81274;BME280;70753;47.908;11.274;2023-07-31T10:56:13;94660.88;;;24.88;38.27
81274;BME280;70753;47.908;11.274;2023-07-31T10:58:39;94655.00;;;24.86;38.18
81274;BME280;70753;47.908;11.274;2023-07-31T11:01:06;94651.34;;;25.66;37.66
81274;BME280;70753;47.908;11.274;2023-07-31T11:03:43;94650.50;;;26.24;37.24
81274;BME280;70753;47.908;11.274;2023-07-31T11:06:09;94641.19;;;26.39;37.02
81274;BME280;70753;47.908;11.274;2023-07-31T11:08:36;94633.44;;;26.62;37.27
81274;BME280;70753;47.908;11.274;2023-07-31T11:11:09;94624.13;;;27.09;34.77
81274;BME280;70753;47.908;11.274;2023-07-31T11:13:40;94611.78;;;28.26;32.52
81274;BME280;70753;47.908;11.274;2023-07-31T11:16:06;94618.31;;;28.57;30.98
81274;BME280;70753;47.908;11.274;2023-07-31T11:18:32;94615.22;;;28.44;31.96
81274;BME280;70753;47.908;11.274;2023-07-31T11:20:59;94628.16;;;29.16;28.65
81274;BME280;70753;47.908;11.274;2023-07-31T11:23:25;94608.94;;;29.06;29.94
81274;BME280;70753;47.908;11.274;2023-07-31T11:25:50;94606.28;;;28.95;30.01
81274;BME280;70753;47.908;11.274;2023-07-31T11:28:17;94598.47;;;28.94;30.52
81274;BME280;70753;47.908;11.274;2023-07-31T11:30:44;94590.66;;;28.89;29.86
81274;BME280;70753;47.908;11.274;2023-07-31T11:33:11;94604.66;;;28.43;30.72
81274;BME280;70753;47.908;11.274;2023-07-31T11:35:42;94597.41;;;28.01;30.41
81274;BME280;70753;47.908;11.274;2023-07-31T11:38:09;94595.91;;;27.68;30.21
81274;BME280;70753;47.908;11.274;2023-07-31T11:40:41;94588.94;;;27.11;31.66
81274;BME280;70753;47.908;11.274;2023-07-31T11:43:07;94569.38;;;27.16;32.12
81274;BME280;70753;47.908;11.274;2023-07-31T11:45:33;94577.97;;;27.25;31.62
81274;BME280;70753;47.908;11.274;2023-07-31T11:47:58;94577.22;;;26.82;31.14
81274;BME280;70753;47.908;11.274;2023-07-31T11:50:24;94593.63;;;26.86;31.05
81274;BME280;70753;47.908;11.274;2023-07-31T11:52:52;94571.59;;;26.19;31.49
81274;BME280;70753;47.908;11.274;2023-07-31T11:55:20;94576.91;;;25.80;32.56
81274;BME280;70753;47.908;11.274;2023-07-31T11:57:47;94571.63;;;26.33;31.75
81274;BME280;70753;47.908;11.274;2023-07-31T12:00:14;94570.06;;;26.18;30.88
81274;BME280;70753;47.908;11.274;2023-07-31T12:02:40;94572.00;;;26.17;33.11
81274;BME280;70753;47.908;11.274;2023-07-31T12:05:06;94563.81;;;26.17;32.17
81274;BME280;70753;47.908;11.274;2023-07-31T12:07:50;94551.13;;;25.74;32.43
81274;BME280;70753;47.908;11.274;2023-07-31T12:10:28;94550.03;;;26.03;32.26
81274;BME280;70753;47.908;11.274;2023-07-31T12:13:02;94556.81;;;26.30;32.67
81274;BME280;70753;47.908;11.274;2023-07-31T12:15:35;94545.81;;;26.13;31.08
81274;BME280;70753;47.908;11.274;2023-07-31T12:18:04;94544.28;;;26.29;30.84
81274;BME280;70753;47.908;11.274;2023-07-31T12:20:32;94547.41;;;26.17;31.26
81274;BME280;70753;47.908;11.274;2023-07-31T12:22:57;94540.41;;;26.44;30.73
81274;BME280;70753;47.908;11.274;2023-07-31T12:25:30;94536.56;;;26.81;31.45
81274;BME280;70753;47.908;11.274;2023-07-31T12:27:56;94530.22;;;27.54;30.14
81274;BME280;70753;47.908;11.274;2023-07-31T12:30:28;94517.97;;;27.80;27.90
81274;BME280;70753;47.908;11.274;2023-07-31T12:32:54;94516.81;;;27.77;27.07
81274;BME280;70753;47.908;11.274;2023-07-31T12:35:20;94514.59;;;27.44;28.60
81274;BME280;70753;47.908;11.274;2023-07-31T12:37:45;94507.06;;;27.69;29.96
81274;BME280;70753;47.908;11.274;2023-07-31T12:40:11;94506.22;;;27.79;28.23
81274;BME280;70753;47.908;11.274;2023-07-31T12:42:40;94499.56;;;27.87;29.64
81274;BME280;70753;47.908;11.274;2023-07-31T12:45:06;94497.44;;;28.20;27.50
81274;BME280;70753;47.908;11.274;2023-07-31T12:47:31;94495.97;;;28.04;28.40